Hinton, Missouri
Current Conditions -  °F | °C
As of 7:11 AM on Saturday 25 Oct 2014 (Local Time) from KCOU Reporting Station
Moderate Fog Moderate Fog  
Wind Chill: 58°   Ceiling: 1000
Heat Index: 58°   Visibility: 0.25mi
Dew Point: 57°   Wind: 5mph
Humidity: 97%   Direction: 260°W
Pressure: 30.03"   Gusts: NA
Location:  39.0235°N, 92.2896°W
Report Text: KCOU 251211Z 26004KT 1/4SM FG VV010 14/14 A3003 RMK AO2 T01440139 $
Loading
Personal Weather Stations






























Interactive Weather Map
Tropical Storm Tracking
New forecast layout! Learn more

10-Day Weather Forecast

Advertisements
Track Severe Weather on mobile